sensor_id;sensor_type;location;lat;lon;timestamp;P1;durP1;ratioP1;P2;durP2;ratioP2
19919;SDS011;10122;50.074;19.920;2022-08-20T00:02:18;16.02;;;10.60;;
19919;SDS011;10122;50.074;19.920;2022-08-20T00:04:45;16.23;;;10.32;;
19919;SDS011;10122;50.074;19.920;2022-08-20T00:07:11;15.15;;;10.68;;
19919;SDS011;10122;50.074;19.920;2022-08-20T00:09:38;14.23;;;9.75;;
19919;SDS011;10122;50.074;19.920;2022-08-20T00:12:05;15.63;;;10.02;;
19919;SDS011;10122;50.074;19.920;2022-08-20T00:14:32;14.05;;;10.30;;
19919;SDS011;10122;50.074;19.920;2022-08-20T00:16:59;14.25;;;9.88;;
19919;SDS011;10122;50.074;19.920;2022-08-20T00:19:25;15.35;;;10.23;;
19919;SDS011;10122;50.074;19.920;2022-08-20T00:21:51;15.80;;;10.40;;
19919;SDS011;10122;50.074;19.920;2022-08-20T00:24:16;12.63;;;9.85;;
19919;SDS011;10122;50.074;19.920;2022-08-20T00:26:42;16.95;;;10.70;;
19919;SDS011;10122;50.074;19.920;2022-08-20T00:29:07;17.20;;;9.93;;
19919;SDS011;10122;50.074;19.920;2022-08-20T00:31:33;15.13;;;10.77;;
19919;SDS011;10122;50.074;19.920;2022-08-20T00:33:59;14.43;;;10.10;;
19919;SDS011;10122;50.074;19.920;2022-08-20T00:36:24;15.30;;;10.13;;
19919;SDS011;10122;50.074;19.920;2022-08-20T00:38:50;14.43;;;9.77;;
19919;SDS011;10122;50.074;19.920;2022-08-20T00:41:18;13.20;;;10.00;;
19919;SDS011;10122;50.074;19.920;2022-08-20T00:43:52;16.00;;;10.35;;
19919;SDS011;10122;50.074;19.920;2022-08-20T00:46:39;13.55;;;10.38;;
19919;SDS011;10122;50.074;19.920;2022-08-20T00:49:07;16.52;;;11.15;;
19919;SDS011;10122;50.074;19.920;2022-08-20T00:51:44;15.63;;;10.10;;
19919;SDS011;10122;50.074;19.920;2022-08-20T00:54:15;15.68;;;9.95;;
19919;SDS011;10122;50.074;19.920;2022-08-20T00:56:58;16.10;;;10.30;;
19919;SDS011;10122;50.074;19.920;2022-08-20T00:59:28;16.63;;;10.73;;
19919;SDS011;10122;50.074;19.920;2022-08-20T01:01:59;15.43;;;10.80;;
19919;SDS011;10122;50.074;19.920;2022-08-20T01:04:27;16.70;;;10.82;;
19919;SDS011;10122;50.074;19.920;2022-08-20T01:06:55;14.98;;;10.75;;
19919;SDS011;10122;50.074;19.920;2022-08-20T01:09:21;14.45;;;10.00;;
19919;SDS011;10122;50.074;19.920;2022-08-20T01:11:48;17.95;;;10.82;;
19919;SDS011;10122;50.074;19.920;2022-08-20T01:14:13;15.35;;;10.70;;
19919;SDS011;10122;50.074;19.920;2022-08-20T01:16:59;16.05;;;10.75;;
19919;SDS011;10122;50.074;19.920;2022-08-20T01:19:34;14.20;;;10.40;;
19919;SDS011;10122;50.074;19.920;2022-08-20T01:22:09;17.17;;;10.68;;
19919;SDS011;10122;50.074;19.920;2022-08-20T01:25:00;13.98;;;10.23;;
19919;SDS011;10122;50.074;19.920;2022-08-20T01:27:33;15.60;;;10.30;;
19919;SDS011;10122;50.074;19.920;2022-08-20T01:30:00;14.52;;;10.18;;
19919;SDS011;10122;50.074;19.920;2022-08-20T01:32:27;14.20;;;10.00;;
19919;SDS011;10122;50.074;19.920;2022-08-20T01:34:53;14.05;;;10.50;;
19919;SDS011;10122;50.074;19.920;2022-08-20T01:37:18;12.93;;;9.88;;
19919;SDS011;10122;50.074;19.920;2022-08-20T01:39:44;13.80;;;10.20;;
19919;SDS011;10122;50.074;19.920;2022-08-20T01:44:51;13.70;;;9.85;;
19919;SDS011;10122;50.074;19.920;2022-08-20T01:47:21;13.85;;;10.23;;
19919;SDS011;10122;50.074;19.920;2022-08-20T01:49:54;17.48;;;10.18;;
19919;SDS011;10122;50.074;19.920;2022-08-20T01:52:46;13.68;;;10.00;;
19919;SDS011;10122;50.074;19.920;2022-08-20T01:55:19;15.40;;;10.27;;
19919;SDS011;10122;50.074;19.920;2022-08-20T01:57:45;16.27;;;10.10;;
19919;SDS011;10122;50.074;19.920;2022-08-20T02:00:13;12.93;;;11.30;;
19919;SDS011;10122;50.074;19.920;2022-08-20T02:02:41;13.40;;;9.90;;
19919;SDS011;10122;50.074;19.920;2022-08-20T02:05:07;12.95;;;10.20;;
19919;SDS011;10122;50.074;19.920;2022-08-20T02:07:33;15.23;;;10.85;;
19919;SDS011;10122;50.074;19.920;2022-08-20T02:09:59;13.82;;;10.10;;
19919;SDS011;10122;50.074;19.920;2022-08-20T02:12:25;14.93;;;10.90;;
19919;SDS011;10122;50.074;19.920;2022-08-20T02:14:52;17.65;;;10.45;;
19919;SDS011;10122;50.074;19.920;2022-08-20T02:17:20;14.70;;;10.55;;
19919;SDS011;10122;50.074;19.920;2022-08-20T02:19:52;13.63;;;10.32;;
19919;SDS011;10122;50.074;19.920;2022-08-20T02:25:12;15.85;;;10.05;;
19919;SDS011;10122;50.074;19.920;2022-08-20T02:27:40;14.25;;;10.98;;
19919;SDS011;10122;50.074;19.920;2022-08-20T02:30:09;14.20;;;10.93;;
19919;SDS011;10122;50.074;19.920;2022-08-20T02:32:41;16.92;;;11.10;;
19919;SDS011;10122;50.074;19.920;2022-08-20T02:35:07;16.65;;;11.57;;
19919;SDS011;10122;50.074;19.920;2022-08-20T02:37:36;16.20;;;10.95;;
19919;SDS011;10122;50.074;19.920;2022-08-20T02:40:03;15.10;;;10.35;;
19919;SDS011;10122;50.074;19.920;2022-08-20T02:42:32;17.73;;;10.20;;
19919;SDS011;10122;50.074;19.920;2022-08-20T02:44:58;14.77;;;11.15;;
19919;SDS011;10122;50.074;19.920;2022-08-20T02:47:25;13.82;;;10.77;;
19919;SDS011;10122;50.074;19.920;2022-08-20T02:49:52;14.40;;;10.63;;
19919;SDS011;10122;50.074;19.920;2022-08-20T02:52:18;15.15;;;11.35;;
19919;SDS011;10122;50.074;19.920;2022-08-20T02:54:44;15.98;;;10.88;;
19919;SDS011;10122;50.074;19.920;2022-08-20T02:57:11;12.98;;;10.88;;
19919;SDS011;10122;50.074;19.920;2022-08-20T02:59:37;15.95;;;10.70;;
19919;SDS011;10122;50.074;19.920;2022-08-20T03:02:03;16.15;;;10.52;;
19919;SDS011;10122;50.074;19.920;2022-08-20T03:04:29;17.20;;;10.55;;
19919;SDS011;10122;50.074;19.920;2022-08-20T03:06:55;14.10;;;10.27;;
19919;SDS011;10122;50.074;19.920;2022-08-20T03:09:21;16.23;;;11.18;;
19919;SDS011;10122;50.074;19.920;2022-08-20T03:11:47;16.17;;;11.05;;
19919;SDS011;10122;50.074;19.920;2022-08-20T03:14:13;14.70;;;10.68;;
19919;SDS011;10122;50.074;19.920;2022-08-20T03:16:39;17.70;;;10.65;;
19919;SDS011;10122;50.074;19.920;2022-08-20T03:19:04;14.52;;;10.43;;
19919;SDS011;10122;50.074;19.920;2022-08-20T03:21:30;14.70;;;11.07;;
19919;SDS011;10122;50.074;19.920;2022-08-20T03:23:56;14.73;;;11.10;;
19919;SDS011;10122;50.074;19.920;2022-08-20T03:26:22;14.93;;;11.02;;
19919;SDS011;10122;50.074;19.920;2022-08-20T03:28:47;18.85;;;11.80;;
19919;SDS011;10122;50.074;19.920;2022-08-20T03:31:13;17.02;;;12.30;;
19919;SDS011;10122;50.074;19.920;2022-08-20T03:33:39;17.55;;;12.13;;
19919;SDS011;10122;50.074;19.920;2022-08-20T03:36:05;17.33;;;11.82;;
19919;SDS011;10122;50.074;19.920;2022-08-20T03:38:31;17.55;;;12.00;;
19919;SDS011;10122;50.074;19.920;2022-08-20T03:40:58;20.63;;;12.25;;
19919;SDS011;10122;50.074;19.920;2022-08-20T03:43:23;20.42;;;12.55;;
19919;SDS011;10122;50.074;19.920;2022-08-20T03:45:49;17.92;;;12.45;;
19919;SDS011;10122;50.074;19.920;2022-08-20T03:48:16;16.63;;;12.93;;
19919;SDS011;10122;50.074;19.920;2022-08-20T03:50:44;18.67;;;13.25;;
19919;SDS011;10122;50.074;19.920;2022-08-20T03:53:12;17.00;;;12.75;;
19919;SDS011;10122;50.074;19.920;2022-08-20T03:55:39;17.75;;;12.43;;
19919;SDS011;10122;50.074;19.920;2022-08-20T03:58:07;20.17;;;12.38;;
19919;SDS011;10122;50.074;19.920;2022-08-20T04:00:38;18.88;;;12.88;;
19919;SDS011;10122;50.074;19.920;2022-08-20T04:03:09;17.40;;;12.40;;
19919;SDS011;10122;50.074;19.920;2022-08-20T04:05:36;16.23;;;12.18;;
19919;SDS011;10122;50.074;19.920;2022-08-20T04:08:09;16.10;;;11.98;;
19919;SDS011;10122;50.074;19.920;2022-08-20T04:10:40;16.45;;;11.90;;
19919;SDS011;10122;50.074;19.920;2022-08-20T04:13:06;18.10;;;12.23;;
19919;SDS011;10122;50.074;19.920;2022-08-20T04:15:33;16.98;;;13.00;;
19919;SDS011;10122;50.074;19.920;2022-08-20T04:18:01;16.55;;;12.68;;
19919;SDS011;10122;50.074;19.920;2022-08-20T04:20:30;17.08;;;12.52;;
19919;SDS011;10122;50.074;19.920;2022-08-20T04:22:56;15.57;;;11.52;;
19919;SDS011;10122;50.074;19.920;2022-08-20T04:25:22;16.33;;;11.73;;
19919;SDS011;10122;50.074;19.920;2022-08-20T04:27:48;18.83;;;12.55;;
19919;SDS011;10122;50.074;19.920;2022-08-20T04:30:15;18.13;;;11.88;;
19919;SDS011;10122;50.074;19.920;2022-08-20T04:32:42;16.40;;;12.27;;
19919;SDS011;10122;50.074;19.920;2022-08-20T04:35:10;15.02;;;11.88;;
19919;SDS011;10122;50.074;19.920;2022-08-20T04:37:39;16.45;;;11.43;;
19919;SDS011;10122;50.074;19.920;2022-08-20T04:40:07;17.25;;;11.27;;
19919;SDS011;10122;50.074;19.920;2022-08-20T04:42:55;14.00;;;10.90;;
19919;SDS011;10122;50.074;19.920;2022-08-20T04:45:22;14.88;;;10.75;;
19919;SDS011;10122;50.074;19.920;2022-08-20T04:47:48;14.55;;;11.02;;
19919;SDS011;10122;50.074;19.920;2022-08-20T04:50:15;15.38;;;11.48;;
19919;SDS011;10122;50.074;19.920;2022-08-20T04:52:41;19.77;;;11.50;;
19919;SDS011;10122;50.074;19.920;2022-08-20T04:55:07;16.42;;;11.55;;
19919;SDS011;10122;50.074;19.920;2022-08-20T04:57:33;20.25;;;12.70;;
19919;SDS011;10122;50.074;19.920;2022-08-20T05:00:03;16.13;;;11.07;;
19919;SDS011;10122;50.074;19.920;2022-08-20T05:02:32;19.63;;;12.07;;
19919;SDS011;10122;50.074;19.920;2022-08-20T05:04:59;15.38;;;11.98;;
19919;SDS011;10122;50.074;19.920;2022-08-20T05:07:24;15.98;;;11.70;;
19919;SDS011;10122;50.074;19.920;2022-08-20T05:09:50;16.02;;;12.50;;
19919;SDS011;10122;50.074;19.920;2022-08-20T05:12:16;18.70;;;11.85;;
19919;SDS011;10122;50.074;19.920;2022-08-20T05:14:42;16.02;;;11.63;;
19919;SDS011;10122;50.074;19.920;2022-08-20T05:17:07;17.38;;;11.65;;
19919;SDS011;10122;50.074;19.920;2022-08-20T05:19:34;17.52;;;12.30;;
19919;SDS011;10122;50.074;19.920;2022-08-20T05:22:02;18.83;;;11.90;;
19919;SDS011;10122;50.074;19.920;2022-08-20T05:24:28;18.65;;;11.70;;
19919;SDS011;10122;50.074;19.920;2022-08-20T05:26:54;16.00;;;11.77;;
19919;SDS011;10122;50.074;19.920;2022-08-20T05:29:20;17.80;;;11.63;;
19919;SDS011;10122;50.074;19.920;2022-08-20T05:31:47;18.42;;;11.07;;
19919;SDS011;10122;50.074;19.920;2022-08-20T05:34:13;15.20;;;10.55;;
19919;SDS011;10122;50.074;19.920;2022-08-20T05:36:42;12.43;;;9.65;;
19919;SDS011;10122;50.074;19.920;2022-08-20T05:39:13;21.10;;;11.77;;
19919;SDS011;10122;50.074;19.920;2022-08-20T05:41:40;16.90;;;9.40;;
19919;SDS011;10122;50.074;19.920;2022-08-20T05:44:06;15.10;;;9.75;;
19919;SDS011;10122;50.074;19.920;2022-08-20T05:46:38;18.58;;;9.57;;
19919;SDS011;10122;50.074;19.920;2022-08-20T05:49:08;15.23;;;10.32;;
19919;SDS011;10122;50.074;19.920;2022-08-20T05:51:36;16.92;;;9.85;;
19919;SDS011;10122;50.074;19.920;2022-08-20T05:54:02;16.35;;;9.43;;
19919;SDS011;10122;50.074;19.920;2022-08-20T05:56:29;15.63;;;10.02;;
19919;SDS011;10122;50.074;19.920;2022-08-20T05:58:56;14.77;;;9.63;;
19919;SDS011;10122;50.074;19.920;2022-08-20T06:01:29;14.25;;;9.90;;
19919;SDS011;10122;50.074;19.920;2022-08-20T06:03:55;17.50;;;9.77;;
19919;SDS011;10122;50.074;19.920;2022-08-20T06:06:39;16.10;;;10.07;;
19919;SDS011;10122;50.074;19.920;2022-08-20T06:09:05;14.35;;;9.13;;
19919;SDS011;10122;50.074;19.920;2022-08-20T06:11:31;17.25;;;10.40;;
19919;SDS011;10122;50.074;19.920;2022-08-20T06:13:57;14.32;;;9.45;;
19919;SDS011;10122;50.074;19.920;2022-08-20T06:16:23;18.25;;;9.65;;
19919;SDS011;10122;50.074;19.920;2022-08-20T06:18:49;16.83;;;9.18;;
19919;SDS011;10122;50.074;19.920;2022-08-20T06:21:15;14.82;;;9.15;;
19919;SDS011;10122;50.074;19.920;2022-08-20T06:23:40;14.40;;;9.27;;
19919;SDS011;10122;50.074;19.920;2022-08-20T06:26:06;10.18;;;8.45;;
19919;SDS011;10122;50.074;19.920;2022-08-20T06:28:33;12.88;;;8.82;;
19919;SDS011;10122;50.074;19.920;2022-08-20T06:31:00;14.48;;;8.65;;
19919;SDS011;10122;50.074;19.920;2022-08-20T06:33:26;12.27;;;8.88;;
19919;SDS011;10122;50.074;19.920;2022-08-20T06:35:51;12.95;;;8.60;;
19919;SDS011;10122;50.074;19.920;2022-08-20T06:38:17;12.88;;;8.90;;
19919;SDS011;10122;50.074;19.920;2022-08-20T06:40:44;15.75;;;9.10;;
19919;SDS011;10122;50.074;19.920;2022-08-20T06:43:10;14.00;;;9.15;;
19919;SDS011;10122;50.074;19.920;2022-08-20T06:45:36;16.52;;;9.93;;
19919;SDS011;10122;50.074;19.920;2022-08-20T06:48:04;14.65;;;9.40;;
19919;SDS011;10122;50.074;19.920;2022-08-20T06:50:33;14.93;;;9.32;;
19919;SDS011;10122;50.074;19.920;2022-08-20T06:53:03;13.05;;;8.38;;
19919;SDS011;10122;50.074;19.920;2022-08-20T06:55:34;13.45;;;8.77;;
19919;SDS011;10122;50.074;19.920;2022-08-20T06:58:02;11.10;;;8.23;;
19919;SDS011;10122;50.074;19.920;2022-08-20T07:00:34;16.90;;;9.57;;
19919;SDS011;10122;50.074;19.920;2022-08-20T07:03:00;19.35;;;9.57;;
19919;SDS011;10122;50.074;19.920;2022-08-20T07:05:32;14.43;;;9.23;;
19919;SDS011;10122;50.074;19.920;2022-08-20T07:08:01;12.60;;;8.85;;
19919;SDS011;10122;50.074;19.920;2022-08-20T07:10:28;13.27;;;9.23;;
19919;SDS011;10122;50.074;19.920;2022-08-20T07:12:54;15.35;;;9.70;;
19919;SDS011;10122;50.074;19.920;2022-08-20T07:15:21;13.23;;;9.60;;
19919;SDS011;10122;50.074;19.920;2022-08-20T07:17:50;16.38;;;9.30;;
19919;SDS011;10122;50.074;19.920;2022-08-20T07:20:19;16.08;;;9.85;;
19919;SDS011;10122;50.074;19.920;2022-08-20T07:22:45;16.73;;;9.60;;
19919;SDS011;10122;50.074;19.920;2022-08-20T07:25:12;14.38;;;9.30;;
19919;SDS011;10122;50.074;19.920;2022-08-20T07:27:40;16.95;;;9.07;;
19919;SDS011;10122;50.074;19.920;2022-08-20T07:30:07;12.50;;;9.02;;
19919;SDS011;10122;50.074;19.920;2022-08-20T07:32:55;12.50;;;8.98;;
19919;SDS011;10122;50.074;19.920;2022-08-20T07:35:21;14.02;;;9.40;;
19919;SDS011;10122;50.074;19.920;2022-08-20T07:37:48;15.20;;;9.13;;
19919;SDS011;10122;50.074;19.920;2022-08-20T07:40:23;14.60;;;8.75;;
19919;SDS011;10122;50.074;19.920;2022-08-20T07:42:54;14.10;;;9.73;;
19919;SDS011;10122;50.074;19.920;2022-08-20T07:45:21;15.00;;;9.82;;
19919;SDS011;10122;50.074;19.920;2022-08-20T07:47:47;14.68;;;9.80;;
19919;SDS011;10122;50.074;19.920;2022-08-20T07:50:17;13.73;;;9.40;;
19919;SDS011;10122;50.074;19.920;2022-08-20T07:52:45;15.52;;;9.55;;
19919;SDS011;10122;50.074;19.920;2022-08-20T07:55:12;15.20;;;9.23;;
19919;SDS011;10122;50.074;19.920;2022-08-20T07:57:39;12.32;;;9.55;;
19919;SDS011;10122;50.074;19.920;2022-08-20T08:00:07;15.23;;;10.02;;
19919;SDS011;10122;50.074;19.920;2022-08-20T08:02:35;14.98;;;9.85;;
19919;SDS011;10122;50.074;19.920;2022-08-20T08:05:00;12.65;;;9.25;;
19919;SDS011;10122;50.074;19.920;2022-08-20T08:07:27;12.10;;;8.80;;
19919;SDS011;10122;50.074;19.920;2022-08-20T08:09:53;14.55;;;8.90;;
19919;SDS011;10122;50.074;19.920;2022-08-20T08:12:20;13.40;;;9.95;;
19919;SDS011;10122;50.074;19.920;2022-08-20T08:14:47;13.50;;;9.57;;
19919;SDS011;10122;50.074;19.920;2022-08-20T08:17:14;14.25;;;9.50;;
19919;SDS011;10122;50.074;19.920;2022-08-20T08:19:42;15.43;;;10.00;;
19919;SDS011;10122;50.074;19.920;2022-08-20T08:22:13;13.60;;;9.98;;
19919;SDS011;10122;50.074;19.920;2022-08-20T08:24:42;14.98;;;9.70;;
19919;SDS011;10122;50.074;19.920;2022-08-20T08:27:11;15.07;;;9.32;;
19919;SDS011;10122;50.074;19.920;2022-08-20T08:29:37;16.05;;;10.07;;
19919;SDS011;10122;50.074;19.920;2022-08-20T08:32:03;16.00;;;9.82;;
19919;SDS011;10122;50.074;19.920;2022-08-20T08:34:31;15.63;;;10.25;;
19919;SDS011;10122;50.074;19.920;2022-08-20T08:36:59;15.27;;;9.85;;
19919;SDS011;10122;50.074;19.920;2022-08-20T08:39:27;16.48;;;10.07;;
19919;SDS011;10122;50.074;19.920;2022-08-20T08:41:57;12.70;;;9.57;;
19919;SDS011;10122;50.074;19.920;2022-08-20T08:44:34;14.88;;;10.23;;
19919;SDS011;10122;50.074;19.920;2022-08-20T08:47:11;15.63;;;10.63;;
19919;SDS011;10122;50.074;19.920;2022-08-20T08:49:46;16.15;;;10.07;;
19919;SDS011;10122;50.074;19.920;2022-08-20T08:52:45;15.13;;;10.10;;
19919;SDS011;10122;50.074;19.920;2022-08-20T08:55:10;15.63;;;9.80;;
19919;SDS011;10122;50.074;19.920;2022-08-20T08:57:40;12.48;;;9.60;;
19919;SDS011;10122;50.074;19.920;2022-08-20T09:00:11;13.48;;;9.18;;
19919;SDS011;10122;50.074;19.920;2022-08-20T09:02:48;15.98;;;9.48;;
19919;SDS011;10122;50.074;19.920;2022-08-20T09:05:36;13.82;;;9.65;;
19919;SDS011;10122;50.074;19.920;2022-08-20T09:08:11;11.90;;;9.50;;
19919;SDS011;10122;50.074;19.920;2022-08-20T09:10:44;12.80;;;10.13;;
19919;SDS011;10122;50.074;19.920;2022-08-20T09:13:10;12.10;;;9.55;;
19919;SDS011;10122;50.074;19.920;2022-08-20T09:15:38;14.07;;;9.98;;
19919;SDS011;10122;50.074;19.920;2022-08-20T09:18:03;11.95;;;9.70;;
19919;SDS011;10122;50.074;19.920;2022-08-20T09:20:29;11.40;;;10.07;;
19919;SDS011;10122;50.074;19.920;2022-08-20T09:22:55;13.65;;;10.18;;
19919;SDS011;10122;50.074;19.920;2022-08-20T09:25:21;14.25;;;9.85;;
19919;SDS011;10122;50.074;19.920;2022-08-20T09:27:47;17.63;;;10.13;;
19919;SDS011;10122;50.074;19.920;2022-08-20T09:30:13;15.93;;;10.20;;
19919;SDS011;10122;50.074;19.920;2022-08-20T09:32:39;14.13;;;9.50;;
19919;SDS011;10122;50.074;19.920;2022-08-20T09:35:06;11.82;;;9.35;;
19919;SDS011;10122;50.074;19.920;2022-08-20T09:37:32;11.95;;;9.32;;
19919;SDS011;10122;50.074;19.920;2022-08-20T09:39:58;13.18;;;9.75;;
19919;SDS011;10122;50.074;19.920;2022-08-20T09:42:28;13.90;;;9.45;;
19919;SDS011;10122;50.074;19.920;2022-08-20T09:44:58;12.90;;;9.18;;
19919;SDS011;10122;50.074;19.920;2022-08-20T09:47:25;12.45;;;8.90;;
19919;SDS011;10122;50.074;19.920;2022-08-20T09:49:51;11.52;;;9.07;;
19919;SDS011;10122;50.074;19.920;2022-08-20T09:52:21;15.82;;;9.75;;
19919;SDS011;10122;50.074;19.920;2022-08-20T09:54:58;10.60;;;8.68;;
19919;SDS011;10122;50.074;19.920;2022-08-20T09:57:26;12.52;;;8.70;;
19919;SDS011;10122;50.074;19.920;2022-08-20T09:59:54;13.82;;;9.27;;
19919;SDS011;10122;50.074;19.920;2022-08-20T10:02:24;10.90;;;8.27;;
19919;SDS011;10122;50.074;19.920;2022-08-20T10:04:50;11.48;;;8.57;;
19919;SDS011;10122;50.074;19.920;2022-08-20T10:07:16;11.35;;;9.00;;
19919;SDS011;10122;50.074;19.920;2022-08-20T10:09:42;12.40;;;8.98;;
19919;SDS011;10122;50.074;19.920;2022-08-20T10:12:08;12.55;;;9.45;;
19919;SDS011;10122;50.074;19.920;2022-08-20T10:14:34;11.10;;;8.43;;
19919;SDS011;10122;50.074;19.920;2022-08-20T10:17:00;11.15;;;8.55;;
19919;SDS011;10122;50.074;19.920;2022-08-20T10:19:26;12.82;;;9.02;;
19919;SDS011;10122;50.074;19.920;2022-08-20T10:21:54;12.23;;;8.43;;
19919;SDS011;10122;50.074;19.920;2022-08-20T10:24:20;10.05;;;8.10;;
19919;SDS011;10122;50.074;19.920;2022-08-20T10:26:46;9.32;;;8.30;;
19919;SDS011;10122;50.074;19.920;2022-08-20T10:29:12;12.82;;;8.15;;
19919;SDS011;10122;50.074;19.920;2022-08-20T10:31:38;8.77;;;7.80;;
19919;SDS011;10122;50.074;19.920;2022-08-20T10:34:04;11.48;;;8.40;;
19919;SDS011;10122;50.074;19.920;2022-08-20T10:36:30;14.25;;;9.02;;
19919;SDS011;10122;50.074;19.920;2022-08-20T10:38:55;12.65;;;8.10;;
19919;SDS011;10122;50.074;19.920;2022-08-20T10:41:21;9.18;;;8.23;;
19919;SDS011;10122;50.074;19.920;2022-08-20T10:43:47;11.00;;;8.50;;
19919;SDS011;10122;50.074;19.920;2022-08-20T10:46:14;12.07;;;8.40;;
19919;SDS011;10122;50.074;19.920;2022-08-20T10:48:40;10.30;;;8.38;;
19919;SDS011;10122;50.074;19.920;2022-08-20T10:51:06;9.57;;;7.45;;
19919;SDS011;10122;50.074;19.920;2022-08-20T10:53:32;8.90;;;7.95;;
19919;SDS011;10122;50.074;19.920;2022-08-20T10:55:58;11.57;;;8.07;;
19919;SDS011;10122;50.074;19.920;2022-08-20T10:58:24;12.82;;;8.23;;
19919;SDS011;10122;50.074;19.920;2022-08-20T11:00:51;11.38;;;7.80;;
19919;SDS011;10122;50.074;19.920;2022-08-20T11:03:17;10.82;;;8.00;;
19919;SDS011;10122;50.074;19.920;2022-08-20T11:05:43;9.70;;;7.90;;
19919;SDS011;10122;50.074;19.920;2022-08-20T11:08:09;9.55;;;8.15;;
19919;SDS011;10122;50.074;19.920;2022-08-20T11:10:45;10.73;;;8.23;;
19919;SDS011;10122;50.074;19.920;2022-08-20T11:13:10;10.38;;;7.93;;
19919;SDS011;10122;50.074;19.920;2022-08-20T11:15:37;10.60;;;8.32;;
19919;SDS011;10122;50.074;19.920;2022-08-20T11:18:06;11.05;;;8.15;;
19919;SDS011;10122;50.074;19.920;2022-08-20T11:20:33;9.52;;;7.97;;
19919;SDS011;10122;50.074;19.920;2022-08-20T11:22:59;10.50;;;7.97;;
19919;SDS011;10122;50.074;19.920;2022-08-20T11:25:27;10.02;;;8.20;;
19919;SDS011;10122;50.074;19.920;2022-08-20T11:27:54;10.25;;;8.50;;
19919;SDS011;10122;50.074;19.920;2022-08-20T11:30:22;12.45;;;8.70;;
19919;SDS011;10122;50.074;19.920;2022-08-20T11:32:53;10.02;;;8.02;;
19919;SDS011;10122;50.074;19.920;2022-08-20T11:35:19;12.95;;;8.60;;
19919;SDS011;10122;50.074;19.920;2022-08-20T11:37:47;10.10;;;9.02;;
19919;SDS011;10122;50.074;19.920;2022-08-20T11:40:16;13.90;;;8.40;;
19919;SDS011;10122;50.074;19.920;2022-08-20T11:42:42;12.88;;;8.10;;
19919;SDS011;10122;50.074;19.920;2022-08-20T11:45:08;9.98;;;8.23;;
19919;SDS011;10122;50.074;19.920;2022-08-20T11:47:34;12.15;;;8.38;;
19919;SDS011;10122;50.074;19.920;2022-08-20T11:50:08;12.10;;;8.15;;
19919;SDS011;10122;50.074;19.920;2022-08-20T11:52:39;12.15;;;8.80;;
19919;SDS011;10122;50.074;19.920;2022-08-20T11:55:05;11.25;;;8.43;;
19919;SDS011;10122;50.074;19.920;2022-08-20T11:57:34;8.50;;;7.40;;
19919;SDS011;10122;50.074;19.920;2022-08-20T12:00:03;11.32;;;7.80;;
19919;SDS011;10122;50.074;19.920;2022-08-20T12:02:31;8.65;;;7.60;;
19919;SDS011;10122;50.074;19.920;2022-08-20T12:04:57;8.80;;;7.45;;
19919;SDS011;10122;50.074;19.920;2022-08-20T12:07:23;11.77;;;7.90;;
19919;SDS011;10122;50.074;19.920;2022-08-20T12:09:50;10.48;;;8.35;;
19919;SDS011;10122;50.074;19.920;2022-08-20T12:12:16;10.85;;;7.82;;
19919;SDS011;10122;50.074;19.920;2022-08-20T12:14:44;12.30;;;8.77;;
19919;SDS011;10122;50.074;19.920;2022-08-20T12:17:14;11.40;;;8.20;;
19919;SDS011;10122;50.074;19.920;2022-08-20T12:19:43;14.90;;;8.70;;
19919;SDS011;10122;50.074;19.920;2022-08-20T12:22:10;12.85;;;9.00;;
19919;SDS011;10122;50.074;19.920;2022-08-20T12:24:36;10.18;;;8.50;;
19919;SDS011;10122;50.074;19.920;2022-08-20T12:29:40;10.90;;;8.40;;
19919;SDS011;10122;50.074;19.920;2022-08-20T12:32:08;12.52;;;8.25;;
19919;SDS011;10122;50.074;19.920;2022-08-20T12:34:35;10.73;;;8.05;;
19919;SDS011;10122;50.074;19.920;2022-08-20T12:37:03;8.68;;;7.78;;
19919;SDS011;10122;50.074;19.920;2022-08-20T12:39:32;11.27;;;7.75;;
19919;SDS011;10122;50.074;19.920;2022-08-20T12:41:59;10.20;;;7.70;;
19919;SDS011;10122;50.074;19.920;2022-08-20T12:44:27;9.77;;;7.95;;
19919;SDS011;10122;50.074;19.920;2022-08-20T12:49:43;11.48;;;8.32;;
19919;SDS011;10122;50.074;19.920;2022-08-20T12:52:11;9.95;;;8.25;;
19919;SDS011;10122;50.074;19.920;2022-08-20T12:54:38;10.18;;;8.30;;
19919;SDS011;10122;50.074;19.920;2022-08-20T12:57:04;10.52;;;7.72;;
19919;SDS011;10122;50.074;19.920;2022-08-20T12:59:31;11.77;;;8.05;;
19919;SDS011;10122;50.074;19.920;2022-08-20T13:01:57;13.20;;;8.15;;
19919;SDS011;10122;50.074;19.920;2022-08-20T13:04:23;9.88;;;8.13;;
19919;SDS011;10122;50.074;19.920;2022-08-20T13:06:49;10.70;;;7.75;;
19919;SDS011;10122;50.074;19.920;2022-08-20T13:09:15;13.18;;;8.65;;
19919;SDS011;10122;50.074;19.920;2022-08-20T13:11:42;11.23;;;8.45;;
19919;SDS011;10122;50.074;19.920;2022-08-20T13:14:08;9.73;;;8.25;;
19919;SDS011;10122;50.074;19.920;2022-08-20T13:16:34;10.70;;;8.60;;
19919;SDS011;10122;50.074;19.920;2022-08-20T13:19:00;12.93;;;9.52;;
19919;SDS011;10122;50.074;19.920;2022-08-20T13:21:25;12.75;;;9.52;;
19919;SDS011;10122;50.074;19.920;2022-08-20T13:23:51;13.98;;;10.07;;
19919;SDS011;10122;50.074;19.920;2022-08-20T13:26:17;24.27;;;8.98;;
19919;SDS011;10122;50.074;19.920;2022-08-20T13:28:43;15.90;;;9.05;;
19919;SDS011;10122;50.074;19.920;2022-08-20T13:31:08;15.15;;;9.57;;
19919;SDS011;10122;50.074;19.920;2022-08-20T13:33:34;16.90;;;8.23;;
19919;SDS011;10122;50.074;19.920;2022-08-20T13:35:59;14.40;;;8.20;;
19919;SDS011;10122;50.074;19.920;2022-08-20T13:38:25;14.93;;;8.25;;
19919;SDS011;10122;50.074;19.920;2022-08-20T13:40:51;16.52;;;6.72;;
19919;SDS011;10122;50.074;19.920;2022-08-20T13:43:16;10.63;;;5.50;;
19919;SDS011;10122;50.074;19.920;2022-08-20T13:45:42;9.45;;;5.30;;
19919;SDS011;10122;50.074;19.920;2022-08-20T13:48:08;8.02;;;3.60;;
19919;SDS011;10122;50.074;19.920;2022-08-20T13:50:34;6.88;;;3.33;;
19919;SDS011;10122;50.074;19.920;2022-08-20T13:53:00;8.13;;;3.55;;
19919;SDS011;10122;50.074;19.920;2022-08-20T13:55:26;8.05;;;3.45;;
19919;SDS011;10122;50.074;19.920;2022-08-20T13:57:53;8.48;;;3.25;;
19919;SDS011;10122;50.074;19.920;2022-08-20T14:00:29;8.50;;;3.42;;
19919;SDS011;10122;50.074;19.920;2022-08-20T14:02:57;7.15;;;3.88;;
19919;SDS011;10122;50.074;19.920;2022-08-20T14:05:26;7.50;;;3.50;;
19919;SDS011;10122;50.074;19.920;2022-08-20T14:07:52;7.40;;;3.60;;
19919;SDS011;10122;50.074;19.920;2022-08-20T14:10:20;6.00;;;3.55;;
19919;SDS011;10122;50.074;19.920;2022-08-20T14:12:48;8.70;;;3.90;;
19919;SDS011;10122;50.074;19.920;2022-08-20T14:15:15;7.30;;;4.00;;
19919;SDS011;10122;50.074;19.920;2022-08-20T14:17:42;9.35;;;4.55;;
19919;SDS011;10122;50.074;19.920;2022-08-20T14:20:14;7.72;;;4.80;;
19919;SDS011;10122;50.074;19.920;2022-08-20T14:22:42;7.45;;;4.60;;
19919;SDS011;10122;50.074;19.920;2022-08-20T14:25:09;9.63;;;5.32;;
19919;SDS011;10122;50.074;19.920;2022-08-20T14:27:37;8.88;;;5.15;;
19919;SDS011;10122;50.074;19.920;2022-08-20T14:30:03;6.70;;;4.53;;
19919;SDS011;10122;50.074;19.920;2022-08-20T14:32:31;7.05;;;4.85;;
19919;SDS011;10122;50.074;19.920;2022-08-20T14:34:57;9.63;;;5.43;;